createdAt,value
2018-09-06T00:00:22.808Z,21.60
2018-09-06T00:01:22.784Z,19.80
2018-09-06T00:02:22.716Z,21.50
2018-09-06T00:03:22.757Z,20.60
2018-09-06T00:04:22.718Z,21.50
2018-09-06T00:05:22.694Z,20.90
2018-09-06T00:06:22.720Z,21.60
2018-09-06T00:07:22.712Z,21.70
2018-09-06T00:08:22.702Z,21.30
2018-09-06T00:09:22.667Z,20.80
2018-09-06T00:10:22.676Z,21.80
2018-09-06T00:11:22.617Z,21.20
2018-09-06T00:12:22.607Z,22.10
2018-09-06T00:13:22.638Z,22.30
2018-09-06T00:14:22.645Z,22.30
2018-09-06T00:15:22.598Z,23.10
2018-09-06T00:16:22.604Z,23.40
2018-09-06T00:17:22.550Z,25.00
2018-09-06T00:18:22.551Z,24.10
2018-09-06T00:19:22.575Z,26.10
2018-09-06T00:20:22.584Z,27.20
2018-09-06T00:21:22.549Z,27.00
2018-09-06T00:22:22.541Z,25.70
2018-09-06T00:23:22.494Z,27.00
2018-09-06T00:24:22.475Z,27.30
2018-09-06T00:25:22.482Z,26.70
2018-09-06T00:26:22.454Z,26.90
2018-09-06T00:27:22.483Z,28.00
2018-09-06T00:28:22.443Z,27.30
2018-09-06T00:29:22.472Z,28.50
2018-09-06T00:30:22.511Z,27.10
2018-09-06T00:31:22.436Z,28.30
2018-09-06T00:32:22.436Z,27.80
2018-09-06T00:33:22.432Z,27.60
2018-09-06T00:34:22.400Z,27.70
2018-09-06T00:35:22.415Z,27.20
2018-09-06T00:36:22.355Z,29.60
2018-09-06T00:37:22.378Z,29.90
2018-09-06T00:38:22.370Z,29.40
2018-09-06T00:39:22.355Z,30.00
2018-09-06T00:40:22.375Z,28.80
2018-09-06T00:41:22.343Z,29.90
2018-09-06T00:42:22.329Z,31.80
2018-09-06T00:43:22.304Z,27.80
2018-09-06T00:44:22.301Z,33.20
2018-09-06T00:45:22.314Z,30.40
2018-09-06T00:46:22.294Z,29.70
2018-09-06T00:47:22.295Z,34.50
2018-09-06T00:48:22.260Z,30.60
2018-09-06T00:49:22.247Z,32.80
2018-09-06T00:50:22.262Z,31.80
2018-09-06T00:51:22.227Z,35.20
2018-09-06T00:52:22.222Z,35.90
2018-09-06T00:53:22.211Z,31.00
2018-09-06T00:54:22.191Z,36.50
2018-09-06T00:55:22.177Z,37.80
2018-09-06T00:56:22.171Z,37.00
2018-09-06T00:57:22.166Z,40.30
2018-09-06T00:58:22.106Z,39.00
2018-09-06T00:59:22.148Z,38.70
2018-09-06T01:00:22.150Z,39.90
2018-09-06T01:01:22.133Z,40.90
2018-09-06T01:02:22.101Z,40.70
2018-09-06T01:03:22.096Z,38.90
2018-09-06T01:04:22.083Z,42.90
2018-09-06T01:05:22.096Z,40.90
2018-09-06T01:06:22.065Z,42.10
2018-09-06T01:07:22.053Z,38.70
2018-09-06T01:08:22.001Z,39.80
2018-09-06T01:09:22.000Z,37.50
2018-09-06T01:10:22.016Z,41.20
2018-09-06T01:11:22.081Z,43.00
2018-09-06T01:12:21.999Z,50.40
2018-09-06T01:13:21.987Z,50.20
2018-09-06T01:14:21.977Z,48.60
2018-09-06T01:15:21.948Z,50.70
2018-09-06T01:16:21.971Z,51.70
2018-09-06T01:17:21.978Z,47.10
2018-09-06T01:18:21.934Z,44.80
2018-09-06T01:19:21.955Z,49.90
2018-09-06T01:20:21.934Z,51.70
2018-09-06T01:21:21.906Z,50.70
2018-09-06T01:22:21.895Z,60.40
2018-09-06T01:23:21.887Z,59.80
2018-09-06T01:24:21.868Z,59.70
2018-09-06T01:25:21.881Z,56.00
2018-09-06T01:26:21.860Z,61.60
2018-09-06T01:27:21.882Z,65.40
2018-09-06T01:28:21.828Z,60.70
2018-09-06T01:29:21.815Z,54.50
2018-09-06T01:30:21.833Z,58.50
2018-09-06T01:31:21.801Z,59.30
2018-09-06T01:32:21.792Z,61.10
2018-09-06T01:33:21.777Z,64.90
2018-09-06T01:34:21.771Z,65.30
2018-09-06T01:35:21.787Z,60.70
2018-09-06T01:36:21.742Z,58.70
2018-09-06T01:37:21.755Z,54.80
2018-09-06T01:38:21.771Z,54.70
2018-09-06T01:39:21.718Z,54.70
2018-09-06T01:40:21.738Z,52.80
2018-09-06T01:41:21.665Z,55.10
2018-09-06T01:42:21.686Z,53.10
2018-09-06T01:43:21.624Z,55.20
2018-09-06T01:44:21.668Z,56.80
2018-09-06T01:45:21.712Z,67.30
2018-09-06T01:46:21.600Z,67.70
2018-09-06T01:47:21.591Z,62.60
2018-09-06T01:48:21.606Z,73.50
2018-09-06T01:49:21.623Z,63.80
2018-09-06T01:50:21.713Z,69.80
2018-09-06T01:51:21.536Z,68.20
2018-09-06T01:52:21.579Z,71.40
2018-09-06T01:53:21.563Z,70.30
2018-09-06T01:54:21.558Z,63.90
2018-09-06T01:55:21.712Z,64.10
2018-09-06T01:56:21.501Z,66.60
2018-09-06T01:57:21.520Z,62.20
2018-09-06T01:58:21.507Z,61.70
2018-09-06T01:59:21.499Z,63.80
2018-09-06T02:00:21.464Z,67.60
2018-09-06T02:01:21.472Z,66.90
2018-09-06T02:02:21.468Z,66.70
2018-09-06T02:03:21.453Z,59.90
2018-09-06T02:04:21.447Z,64.50
2018-09-06T02:05:21.459Z,72.60
2018-09-06T02:06:21.423Z,74.10
2018-09-06T02:07:21.406Z,74.70
2018-09-06T02:08:21.405Z,75.60
2018-09-06T02:09:21.414Z,77.20
2018-09-06T02:10:21.386Z,74.00
2018-09-06T02:11:21.369Z,73.10
2018-09-06T02:12:21.358Z,74.70
2018-09-06T02:13:21.348Z,73.70
2018-09-06T02:14:21.444Z,75.50
2018-09-06T02:15:21.358Z,72.10
2018-09-06T02:16:21.272Z,75.60
2018-09-06T02:17:21.308Z,76.60
2018-09-06T02:18:21.296Z,80.60
2018-09-06T02:19:21.279Z,78.20
2018-09-06T02:20:21.353Z,77.50
2018-09-06T02:21:21.262Z,74.30
2018-09-06T02:22:21.206Z,79.40
2018-09-06T02:23:21.238Z,73.90
2018-09-06T02:24:21.306Z,78.00
2018-09-06T02:25:21.223Z,78.10
2018-09-06T02:26:21.267Z,79.40
2018-09-06T02:27:21.197Z,79.00
2018-09-06T02:28:21.185Z,80.00
2018-09-06T02:29:21.127Z,81.90
2018-09-06T02:30:21.158Z,76.60
2018-09-06T02:31:21.180Z,79.90
2018-09-06T02:32:21.139Z,77.20
2018-09-06T02:33:21.127Z,85.10
2018-09-06T02:34:21.116Z,81.90
2018-09-06T02:35:21.112Z,80.90
2018-09-06T02:36:21.121Z,81.40
2018-09-06T02:37:21.085Z,84.20
2018-09-06T02:38:21.081Z,82.00
2018-09-06T02:39:21.070Z,82.50
2018-09-06T02:40:21.053Z,84.50
2018-09-06T02:41:21.062Z,80.40
2018-09-06T02:42:20.982Z,84.50
2018-09-06T02:43:21.010Z,81.70
2018-09-06T02:44:21.006Z,78.70
2018-09-06T02:45:20.953Z,81.50
2018-09-06T02:46:21.002Z,82.70
2018-09-06T02:47:20.930Z,81.30
2018-09-06T02:48:20.965Z,78.20
2018-09-06T02:49:20.955Z,81.50
2018-09-06T02:50:20.952Z,78.80
2018-09-06T02:51:20.952Z,76.80
2018-09-06T02:52:20.918Z,78.70
2018-09-06T02:53:20.916Z,73.70
2018-09-06T02:54:20.899Z,54.20
2018-09-06T02:55:20.886Z,56.80
2018-09-06T02:56:20.854Z,49.50
2018-09-06T02:57:20.869Z,65.40
2018-09-06T02:58:20.853Z,65.00
2018-09-06T02:59:20.876Z,64.40
2018-09-06T03:00:20.789Z,78.40
2018-09-06T03:01:20.860Z,72.80
2018-09-06T03:02:20.807Z,72.40
2018-09-06T03:03:20.755Z,73.90
2018-09-06T03:04:20.749Z,81.30
2018-09-06T03:05:20.773Z,79.00
2018-09-06T03:06:20.781Z,77.70
2018-09-06T03:07:20.756Z,79.70
2018-09-06T03:08:20.740Z,80.80
2018-09-06T03:09:20.695Z,73.50
2018-09-06T03:10:20.718Z,78.00
2018-09-06T03:11:20.730Z,74.60
2018-09-06T03:12:20.694Z,68.10
2018-09-06T03:13:20.670Z,70.60
2018-09-06T03:14:20.622Z,77.30
2018-09-06T03:15:20.665Z,80.40
2018-09-06T03:16:20.676Z,76.70
2018-09-06T03:17:20.650Z,80.40
2018-09-06T03:18:20.629Z,85.10
2018-09-06T03:19:20.612Z,81.00
2018-09-06T03:20:20.607Z,79.10
2018-09-06T03:21:20.619Z,76.60
2018-09-06T03:22:20.587Z,81.20
2018-09-06T03:23:20.541Z,87.90
2018-09-06T03:24:20.571Z,86.60
2018-09-06T03:25:20.572Z,91.00
2018-09-06T03:26:20.565Z,78.10
2018-09-06T03:27:20.535Z,88.10
2018-09-06T03:28:20.521Z,98.20
2018-09-06T03:29:20.535Z,84.70
2018-09-06T03:30:20.512Z,95.70
2018-09-06T03:31:20.515Z,98.00
2018-09-06T03:32:20.484Z,99.50
2018-09-06T03:33:20.471Z,102.00
2018-09-06T03:34:20.452Z,100.90
2018-09-06T03:35:20.442Z,94.50
2018-09-06T03:36:20.455Z,97.40
2018-09-06T03:37:20.426Z,107.50
2018-09-06T03:38:20.420Z,112.30
2018-09-06T03:39:20.426Z,108.50
2018-09-06T03:40:20.344Z,108.40
2018-09-06T03:41:20.337Z,102.70
2018-09-06T03:42:20.388Z,110.00
2018-09-06T03:43:20.356Z,109.20
2018-09-06T03:44:20.347Z,110.10
2018-09-06T03:45:20.363Z,101.10
2018-09-06T03:46:20.286Z,111.10
2018-09-06T03:47:20.374Z,110.90
2018-09-06T03:48:20.302Z,121.40
2018-09-06T03:49:20.298Z,121.50
2018-09-06T03:50:20.284Z,120.60
2018-09-06T03:51:20.225Z,118.40
2018-09-06T03:52:20.276Z,119.00
2018-09-06T03:53:20.254Z,116.80
2018-09-06T03:54:20.238Z,118.60
2018-09-06T03:55:20.228Z,113.80
2018-09-06T03:56:20.215Z,108.00
2018-09-06T03:57:20.234Z,112.40
2018-09-06T03:58:20.193Z,114.30
2018-09-06T03:59:20.184Z,114.90
2018-09-06T04:00:20.167Z,119.80
2018-09-06T04:01:20.171Z,116.60
2018-09-06T04:02:20.168Z,104.50
2018-09-06T04:03:20.141Z,108.40
2018-09-06T04:04:20.112Z,122.60
2018-09-06T04:05:20.119Z,122.30
2018-09-06T04:06:20.108Z,130.00
2018-09-06T04:07:20.078Z,126.80
2018-09-06T04:08:20.092Z,115.40
2018-09-06T04:09:20.366Z,115.80
2018-09-06T04:10:20.244Z,122.10
2018-09-06T04:11:20.059Z,125.10
2018-09-06T04:12:20.666Z,121.90
2018-09-06T04:13:20.036Z,126.50
2018-09-06T04:14:20.029Z,123.40
2018-09-06T04:15:20.016Z,117.80
2018-09-06T04:16:20.021Z,100.20
2018-09-06T04:17:20.011Z,129.40
2018-09-06T04:18:20.093Z,124.70
2018-09-06T04:19:19.977Z,129.80
2018-09-06T04:20:19.965Z,124.90
2018-09-06T04:21:19.952Z,129.50
2018-09-06T04:22:20.029Z,134.50
2018-09-06T04:23:19.929Z,138.70
2018-09-06T04:24:19.968Z,130.70
2018-09-06T04:25:19.864Z,137.50
2018-09-06T04:26:19.924Z,128.10
2018-09-06T04:27:19.924Z,131.60
2018-09-06T04:28:19.912Z,118.80
2018-09-06T04:29:19.824Z,129.30
2018-09-06T04:30:19.856Z,143.50
2018-09-06T04:31:19.844Z,147.30
2018-09-06T04:32:19.836Z,139.70
2018-09-06T04:33:19.827Z,130.60
2018-09-06T04:34:19.813Z,117.80
2018-09-06T04:35:19.844Z,131.20
2018-09-06T04:36:19.871Z,128.00
2018-09-06T04:37:19.806Z,135.00
2018-09-06T04:38:19.771Z,132.10
2018-09-06T04:39:19.761Z,131.20
2018-09-06T04:40:19.748Z,128.20
2018-09-06T04:41:19.737Z,132.80
2018-09-06T04:42:19.705Z,139.90
2018-09-06T04:43:19.715Z,139.70
2018-09-06T04:44:19.704Z,136.50
2018-09-06T04:45:19.707Z,150.50
2018-09-06T04:46:19.692Z,152.60
2018-09-06T04:47:19.670Z,135.30
2018-09-06T04:48:19.678Z,135.00
2018-09-06T04:49:19.679Z,130.00
2018-09-06T04:50:19.599Z,137.50
2018-09-06T04:51:19.640Z,122.90
2018-09-06T04:52:19.664Z,131.00
2018-09-06T04:53:19.576Z,128.60
2018-09-06T04:54:19.598Z,120.30
2018-09-06T04:55:19.644Z,125.40
2018-09-06T04:56:19.589Z,119.00
2018-09-06T04:57:19.598Z,113.00
2018-09-06T04:58:19.573Z,132.10
2018-09-06T04:59:19.509Z,133.90
2018-09-06T05:00:19.549Z,135.10
2018-09-06T05:01:19.530Z,139.50
2018-09-06T05:02:19.541Z,135.60
2018-09-06T05:03:19.503Z,136.90
2018-09-06T05:04:19.640Z,144.80
2018-09-06T05:05:19.485Z,148.70
2018-09-06T05:06:19.474Z,157.40
2018-09-06T05:07:19.472Z,152.80
2018-09-06T05:08:19.509Z,145.00
2018-09-06T05:09:19.459Z,140.10
2018-09-06T05:10:19.399Z,133.20
2018-09-06T05:11:19.422Z,133.70
2018-09-06T05:12:19.415Z,126.60
2018-09-06T05:13:19.431Z,136.40
2018-09-06T05:14:19.396Z,139.60
2018-09-06T05:15:19.457Z,124.20
2018-09-06T05:16:19.383Z,144.10
2018-09-06T05:17:19.360Z,137.90
2018-09-06T05:18:19.369Z,132.50
2018-09-06T05:19:19.365Z,142.20
2018-09-06T05:20:19.338Z,147.90
2018-09-06T05:21:19.373Z,145.60
2018-09-06T05:22:19.295Z,132.10
2018-09-06T05:23:19.356Z,139.70
2018-09-06T05:24:19.291Z,137.80
2018-09-06T05:25:19.310Z,135.70
2018-09-06T05:26:19.272Z,150.00
2018-09-06T05:27:19.252Z,142.40
2018-09-06T05:28:19.262Z,149.40
2018-09-06T05:29:19.240Z,144.80
2018-09-06T05:30:19.221Z,139.40
2018-09-06T05:31:19.236Z,145.90
2018-09-06T05:32:19.153Z,139.00
2018-09-06T05:33:19.233Z,137.70
2018-09-06T05:34:19.178Z,141.40
2018-09-06T05:35:19.242Z,144.60
2018-09-06T05:36:19.208Z,153.20
2018-09-06T05:37:19.147Z,156.50
2018-09-06T05:38:19.166Z,157.40
2018-09-06T05:39:19.122Z,153.20
2018-09-06T05:40:19.116Z,153.50
2018-09-06T05:41:19.057Z,158.60
2018-09-06T05:42:19.090Z,152.60
2018-09-06T05:43:19.113Z,132.90
2018-09-06T05:44:19.924Z,132.90
2018-09-06T05:45:19.911Z,129.40
2018-09-06T05:46:19.931Z,145.50
2018-09-06T05:47:19.241Z,136.90
2018-09-06T05:48:20.408Z,128.50
2018-09-06T05:49:19.017Z,107.20
2018-09-06T05:50:19.011Z,125.60
2018-09-06T05:51:19.000Z,136.40
2018-09-06T05:52:18.985Z,109.40
2018-09-06T05:53:19.030Z,120.80
2018-09-06T05:54:18.961Z,126.50
2018-09-06T05:55:18.951Z,129.10
2018-09-06T05:56:18.914Z,136.20
2018-09-06T05:57:18.937Z,136.70
2018-09-06T05:58:18.938Z,138.40
2018-09-06T05:59:18.874Z,140.40
2018-09-06T06:00:18.903Z,130.40
2018-09-06T06:01:18.893Z,145.30
2018-09-06T06:02:19.007Z,153.50
2018-09-06T06:03:19.165Z,138.30
2018-09-06T06:04:18.858Z,146.50
2018-09-06T06:05:18.874Z,152.40
2018-09-06T06:06:18.837Z,150.00
2018-09-06T06:07:18.834Z,150.20
2018-09-06T06:08:18.992Z,159.10
2018-09-06T06:09:18.802Z,122.50
2018-09-06T06:10:18.770Z,134.20
2018-09-06T06:11:18.741Z,134.80
2018-09-06T06:12:18.843Z,125.70
2018-09-06T06:13:18.786Z,126.70
2018-09-06T06:14:18.840Z,119.80
2018-09-06T06:15:18.739Z,137.50
2018-09-06T06:16:18.765Z,142.40
2018-09-06T06:17:18.760Z,100.90
2018-09-06T06:18:18.693Z,117.80
2018-09-06T06:19:18.677Z,134.20
2018-09-06T06:20:18.702Z,141.60
2018-09-06T06:21:18.835Z,136.00
2018-09-06T06:22:18.734Z,139.90
2018-09-06T06:23:18.644Z,136.20
2018-09-06T06:24:18.619Z,131.70
2018-09-06T06:25:18.632Z,134.60
2018-09-06T06:26:18.624Z,150.90
2018-09-06T06:27:18.614Z,142.50
2018-09-06T06:28:18.656Z,148.90
2018-09-06T06:29:18.591Z,142.80
2018-09-06T06:30:18.586Z,146.40
2018-09-06T06:31:18.574Z,142.30
2018-09-06T06:32:18.581Z,149.80
2018-09-06T06:33:18.573Z,147.40
2018-09-06T06:34:18.541Z,151.00
2018-09-06T06:35:18.550Z,154.60
2018-09-06T06:36:18.520Z,160.50
2018-09-06T06:37:18.512Z,155.00
2018-09-06T06:38:18.477Z,159.10
2018-09-06T06:39:18.489Z,159.40
2018-09-06T06:40:18.479Z,167.40
2018-09-06T06:41:18.467Z,161.30
2018-09-06T06:42:18.455Z,156.40
2018-09-06T06:43:18.463Z,140.90
2018-09-06T06:44:18.440Z,161.90
2018-09-06T06:45:18.422Z,157.30
2018-09-06T06:46:18.412Z,170.10
2018-09-06T06:47:18.370Z,153.50
2018-09-06T06:48:18.421Z,139.50
2018-09-06T06:49:25.473Z,147.40
2018-09-06T06:50:18.334Z,150.60
2018-09-06T06:51:18.361Z,146.40
2018-09-06T06:52:18.348Z,148.20
2018-09-06T06:53:18.367Z,152.70
2018-09-06T06:54:18.308Z,150.90
2018-09-06T06:55:18.316Z,153.80
2018-09-06T06:56:18.331Z,155.40
2018-09-06T06:57:18.299Z,169.70
2018-09-06T06:58:18.286Z,151.30
2018-09-06T06:59:18.305Z,154.90
2018-09-06T07:00:18.264Z,167.80
2018-09-06T07:01:18.251Z,150.00
2018-09-06T07:02:18.226Z,149.80
2018-09-06T07:03:18.228Z,162.50
2018-09-06T07:04:18.309Z,157.80
2018-09-06T07:05:18.227Z,149.80
2018-09-06T07:06:18.198Z,175.00
2018-09-06T07:07:18.184Z,136.20
2018-09-06T07:08:18.177Z,142.00
2018-09-06T07:09:18.193Z,123.50
2018-09-06T07:10:18.152Z,128.70
2018-09-06T07:11:18.129Z,140.80
2018-09-06T07:12:18.129Z,136.60
2018-09-06T07:13:18.122Z,150.30
2018-09-06T07:14:18.131Z,134.10
2018-09-06T07:15:18.059Z,126.70
2018-09-06T07:16:18.091Z,123.90
2018-09-06T07:17:18.047Z,120.70
2018-09-06T07:18:18.073Z,115.00
2018-09-06T07:19:18.085Z,120.80
2018-09-06T07:20:18.043Z,123.80
2018-09-06T07:21:18.046Z,123.80
2018-09-06T07:22:18.018Z,116.60
2018-09-06T07:23:18.007Z,114.80
2018-09-06T07:24:18.020Z,106.90
2018-09-06T07:25:17.991Z,114.20
2018-09-06T07:26:17.973Z,107.50
2018-09-06T07:27:17.975Z,102.70
2018-09-06T07:28:17.909Z,90.10
2018-09-06T07:29:17.984Z,99.70
2018-09-06T07:30:17.930Z,91.20
2018-09-06T07:31:17.925Z,104.80
2018-09-06T07:32:17.876Z,95.70
2018-09-06T07:33:17.893Z,95.20
2018-09-06T07:34:17.909Z,105.40
2018-09-06T07:35:17.910Z,102.50
2018-09-06T07:36:17.826Z,85.60
2018-09-06T07:37:17.867Z,98.90
2018-09-06T07:38:17.860Z,93.70
2018-09-06T07:39:17.861Z,96.50
2018-09-06T07:40:17.847Z,96.50
2018-09-06T07:41:17.842Z,98.00
2018-09-06T07:42:17.802Z,103.10
2018-09-06T07:43:17.792Z,92.70
2018-09-06T07:44:17.816Z,92.60
2018-09-06T07:45:17.775Z,94.10
2018-09-06T07:46:17.758Z,89.90
2018-09-06T07:47:17.748Z,90.20
2018-09-06T07:48:17.735Z,92.60
2018-09-06T07:49:17.749Z,90.70
2018-09-06T07:50:17.715Z,91.80
2018-09-06T07:51:17.712Z,96.20
2018-09-06T07:52:17.753Z,95.50
2018-09-06T07:53:17.684Z,87.00
2018-09-06T07:54:17.687Z,92.10
2018-09-06T07:55:17.653Z,92.40
2018-09-06T07:56:17.646Z,85.40
2018-09-06T07:57:17.641Z,85.10
2018-09-06T07:58:17.631Z,86.40
2018-09-06T07:59:17.642Z,87.70
2018-09-06T08:00:17.606Z,80.00
2018-09-06T08:01:17.603Z,81.00
2018-09-06T08:02:17.538Z,79.30
2018-09-06T08:03:17.578Z,74.80
2018-09-06T08:04:17.737Z,72.70
2018-09-06T08:05:17.562Z,73.20
2018-09-06T08:06:17.552Z,74.80
2018-09-06T08:07:17.534Z,75.60
2018-09-06T08:08:17.520Z,70.80
2018-09-06T08:09:17.536Z,75.70
2018-09-06T08:10:17.507Z,77.30
2018-09-06T08:11:17.499Z,82.50
2018-09-06T08:12:17.471Z,70.80
2018-09-06T08:13:17.468Z,72.50
2018-09-06T08:14:17.584Z,74.90
2018-09-06T08:15:17.442Z,66.20
2018-09-06T08:16:17.432Z,59.60
2018-09-06T08:17:17.425Z,61.80
2018-09-06T08:18:17.409Z,58.30
2018-09-06T08:19:17.430Z,54.10
2018-09-06T08:20:17.388Z,50.50
2018-09-06T08:21:17.378Z,55.30
2018-09-06T08:22:17.361Z,55.10
2018-09-06T08:23:17.359Z,57.20
2018-09-06T08:24:17.358Z,56.60
2018-09-06T08:25:17.350Z,54.30
2018-09-06T08:26:17.319Z,52.30
2018-09-06T08:27:17.356Z,54.30
2018-09-06T08:28:17.299Z,53.70
2018-09-06T08:29:17.291Z,50.00
2018-09-06T08:30:17.314Z,51.10
2018-09-06T08:31:17.299Z,56.00
2018-09-06T08:32:17.258Z,53.10
2018-09-06T08:33:17.201Z,51.90
2018-09-06T08:34:17.233Z,51.60
2018-09-06T08:35:17.245Z,50.60
2018-09-06T08:36:17.180Z,50.20
2018-09-06T08:37:17.209Z,46.60
2018-09-06T08:38:17.191Z,47.60
2018-09-06T08:39:17.187Z,48.40
2018-09-06T08:40:17.192Z,47.10
2018-09-06T08:41:17.113Z,46.90
2018-09-06T08:42:17.176Z,47.10
2018-09-06T08:43:17.143Z,43.30
2018-09-06T08:44:17.127Z,45.20
2018-09-06T08:45:17.163Z,46.40
2018-09-06T08:46:17.101Z,49.00
2018-09-06T08:47:17.088Z,46.50
2018-09-06T08:48:17.081Z,45.80
2018-09-06T08:49:17.066Z,44.90
2018-09-06T08:50:17.079Z,43.30
2018-09-06T08:51:17.042Z,42.70
2018-09-06T08:52:17.080Z,46.30
2018-09-06T08:53:17.020Z,47.40
2018-09-06T08:54:17.013Z,44.40
2018-09-06T08:55:17.020Z,45.80
2018-09-06T08:56:17.029Z,44.20
2018-09-06T08:57:16.978Z,44.50
2018-09-06T08:58:16.978Z,46.50
2018-09-06T08:59:16.954Z,44.30
2018-09-06T09:00:16.972Z,46.80
2018-09-06T09:01:16.936Z,41.60
2018-09-06T09:02:17.090Z,42.40
2018-09-06T09:03:16.940Z,43.20
2018-09-06T09:04:16.908Z,42.40
2018-09-06T09:05:16.926Z,44.10
2018-09-06T09:06:16.881Z,45.00
2018-09-06T09:07:16.831Z,44.00
2018-09-06T09:08:16.880Z,43.90
2018-09-06T09:09:16.852Z,43.30
2018-09-06T09:10:16.860Z,46.20
2018-09-06T09:11:16.826Z,43.00
2018-09-06T09:12:16.817Z,45.30
2018-09-06T09:13:16.826Z,45.80
2018-09-06T09:14:16.797Z,46.50
2018-09-06T09:15:16.801Z,47.20
2018-09-06T09:16:16.948Z,44.60
2018-09-06T09:17:16.806Z,43.20
2018-09-06T09:18:16.801Z,42.90
2018-09-06T09:19:16.704Z,42.40
2018-09-06T09:20:16.772Z,41.80
2018-09-06T09:21:16.717Z,43.10
2018-09-06T09:22:16.783Z,41.90
2018-09-06T09:23:16.703Z,43.60
2018-09-06T09:24:16.693Z,43.60
2018-09-06T09:25:16.700Z,44.20
2018-09-06T09:26:16.673Z,43.30
2018-09-06T09:27:16.658Z,39.50
2018-09-06T09:28:16.648Z,36.60
2018-09-06T09:29:16.636Z,38.20
2018-09-06T09:30:16.606Z,38.20
2018-09-06T09:31:16.615Z,37.00
2018-09-06T09:32:16.605Z,37.50
2018-09-06T09:33:16.592Z,37.40
2018-09-06T09:34:16.582Z,34.10
2018-09-06T09:35:16.571Z,31.10
2018-09-06T09:36:16.582Z,30.40
2018-09-06T09:37:16.560Z,30.10
2018-09-06T09:38:16.538Z,28.30
2018-09-06T09:39:16.523Z,28.60
2018-09-06T09:40:16.516Z,26.30
2018-09-06T09:41:16.486Z,26.30
2018-09-06T09:42:16.492Z,26.60
2018-09-06T09:43:16.551Z,26.20
2018-09-06T09:44:16.475Z,24.60
2018-09-06T09:45:16.469Z,24.40
2018-09-06T09:47:43.335Z,27.50
2018-09-06T09:48:43.312Z,30.90
2018-09-06T09:49:43.362Z,29.40
2018-09-06T09:51:12.112Z,25.40
2018-09-06T09:52:12.106Z,28.70
2018-09-06T09:53:12.175Z,28.70
2018-09-06T09:54:12.068Z,28.90
2018-09-06T09:55:12.060Z,29.10
2018-09-06T09:56:12.071Z,29.20
2018-09-06T09:57:12.058Z,31.80
2018-09-06T09:58:12.037Z,30.80
2018-09-06T09:59:12.094Z,34.80
2018-09-06T10:00:12.010Z,34.50
2018-09-06T10:01:12.024Z,33.30
2018-09-06T10:02:11.988Z,32.80
2018-09-06T10:03:11.983Z,33.50
2018-09-06T10:04:11.959Z,32.50
2018-09-06T10:05:11.971Z,31.70
2018-09-06T10:06:11.990Z,34.50
2018-09-06T10:07:11.887Z,32.00
2018-09-06T10:08:11.926Z,32.10
2018-09-06T10:09:11.926Z,34.40
2018-09-06T10:10:11.904Z,38.00
2018-09-06T10:11:11.926Z,36.50
2018-09-06T10:12:11.882Z,37.00
2018-09-06T10:13:11.866Z,37.50
2018-09-06T10:14:11.851Z,36.20
2018-09-06T10:15:11.853Z,38.80
2018-09-06T10:16:11.860Z,40.70
2018-09-06T10:17:11.825Z,45.30
2018-09-06T10:18:11.778Z,46.40
2018-09-06T10:19:11.804Z,45.80
2018-09-06T10:20:11.787Z,46.10
2018-09-06T10:21:11.750Z,45.60
2018-09-06T10:22:11.780Z,44.30
2018-09-06T10:23:11.756Z,43.10
2018-09-06T10:24:11.752Z,44.50
2018-09-06T10:25:11.747Z,42.70
2018-09-06T10:26:11.756Z,42.60
2018-09-06T10:27:11.713Z,42.90
2018-09-06T10:28:11.701Z,43.20
2018-09-06T10:29:11.693Z,43.00
2018-09-06T10:30:11.682Z,43.70
2018-09-06T10:31:11.623Z,44.50
2018-09-06T10:32:11.680Z,44.10
2018-09-06T10:33:11.652Z,43.40
2018-09-06T10:34:11.636Z,43.50
2018-09-06T10:35:11.599Z,45.10
2018-09-06T10:36:11.613Z,41.70
2018-09-06T10:37:11.630Z,44.20
2018-09-06T10:38:11.596Z,44.30
2018-09-06T10:39:11.623Z,45.70
2018-09-06T10:40:11.571Z,42.30
2018-09-06T10:41:11.559Z,43.80
2018-09-06T10:42:11.584Z,43.80
2018-09-06T10:43:11.544Z,42.00
2018-09-06T10:44:11.523Z,43.70
2018-09-06T10:45:11.472Z,46.10
2018-09-06T10:46:11.501Z,43.90
2018-09-06T10:47:11.522Z,45.30
2018-09-06T10:48:11.484Z,43.80
2018-09-06T10:49:11.471Z,44.50
2018-09-06T10:50:11.463Z,48.60
2018-09-06T10:51:11.453Z,47.70
2018-09-06T10:52:11.437Z,46.70
2018-09-06T10:53:11.433Z,45.70
2018-09-06T10:54:11.452Z,45.80
2018-09-06T10:55:11.409Z,48.60
2018-09-06T10:56:11.360Z,47.10
2018-09-06T10:57:11.405Z,48.80
2018-09-06T10:58:11.448Z,47.80
2018-09-06T10:59:11.366Z,46.80
2018-09-06T11:00:11.356Z,51.20
2018-09-06T11:01:11.349Z,48.60
2018-09-06T11:02:11.441Z,48.30
2018-09-06T11:03:11.321Z,48.50
2018-09-06T11:04:11.321Z,47.90
2018-09-06T11:05:11.303Z,49.20
2018-09-06T11:06:11.319Z,49.50
2018-09-06T11:07:11.304Z,48.90
2018-09-06T11:08:11.339Z,49.90
2018-09-06T11:09:11.214Z,49.70
2018-09-06T11:10:11.209Z,48.10
2018-09-06T11:11:11.233Z,49.60
2018-09-06T11:12:11.274Z,48.70
2018-09-06T11:13:11.214Z,48.50
2018-09-06T11:14:11.203Z,48.40
2018-09-06T11:15:11.197Z,49.10
2018-09-06T11:16:11.180Z,46.10
2018-09-06T11:17:11.199Z,45.50
2018-09-06T11:18:11.162Z,45.40
2018-09-06T11:19:11.152Z,46.80
2018-09-06T11:20:11.142Z,46.60
2018-09-06T11:21:11.240Z,45.20
2018-09-06T11:22:11.277Z,45.60
2018-09-06T11:23:11.111Z,48.70
2018-09-06T11:24:11.095Z,49.90
2018-09-06T11:25:11.136Z,51.10
2018-09-06T11:26:11.035Z,49.00
2018-09-06T11:27:11.099Z,48.40
2018-09-06T11:28:11.057Z,47.60
2018-09-06T11:29:11.061Z,46.70
2018-09-06T11:30:11.036Z,43.90
2018-09-06T11:31:18.037Z,45.00
2018-09-06T11:32:11.019Z,49.50
2018-09-06T11:33:11.045Z,47.90
2018-09-06T11:34:10.988Z,49.50
2018-09-06T11:35:10.985Z,47.30
2018-09-06T11:36:10.970Z,48.90
2018-09-06T11:37:10.956Z,49.60
2018-09-06T11:38:10.981Z,47.10
2018-09-06T11:39:10.936Z,47.80
2018-09-06T11:40:11.021Z,48.50
2018-09-06T11:41:10.918Z,48.30
2018-09-06T11:42:10.903Z,49.00
2018-09-06T11:43:10.919Z,49.90
2018-09-06T11:44:10.884Z,51.60
2018-09-06T11:45:10.874Z,50.50
2018-09-06T11:46:10.871Z,51.00
2018-09-06T11:47:10.916Z,49.90
2018-09-06T11:48:10.862Z,50.30
2018-09-06T11:49:10.790Z,50.30
2018-09-06T11:50:10.817Z,52.70
2018-09-06T11:51:10.769Z,51.70
2018-09-06T11:52:10.800Z,50.90
2018-09-06T11:53:10.925Z,51.60
2018-09-06T11:54:10.733Z,52.50
2018-09-06T11:55:10.750Z,52.90
2018-09-06T11:56:10.763Z,52.70
2018-09-06T11:57:10.743Z,51.30
2018-09-06T11:58:10.714Z,52.90
2018-09-06T11:59:10.793Z,53.30
2018-09-06T12:00:10.716Z,51.50
2018-09-06T12:01:10.659Z,52.10
2018-09-06T12:02:10.725Z,55.00
2018-09-06T12:03:10.713Z,52.20
2018-09-06T12:04:10.669Z,53.00
2018-09-06T12:05:10.725Z,51.40
2018-09-06T12:06:10.664Z,54.00
2018-09-06T12:07:10.634Z,55.40
2018-09-06T12:08:10.658Z,55.10
2018-09-06T12:09:10.612Z,54.90
2018-09-06T12:10:10.601Z,55.60
2018-09-06T12:11:10.589Z,55.20
2018-09-06T12:12:10.593Z,56.10
2018-09-06T12:13:10.604Z,53.20
2018-09-06T12:14:10.516Z,54.70
2018-09-06T12:15:10.546Z,51.70
2018-09-06T12:16:10.569Z,54.90
2018-09-06T12:17:10.532Z,57.20
2018-09-06T12:18:10.541Z,56.50
2018-09-06T12:19:10.504Z,56.60
2018-09-06T12:20:10.501Z,58.20
2018-09-06T12:21:10.490Z,52.60
2018-09-06T12:22:10.471Z,58.60
2018-09-06T12:23:10.482Z,54.30
2018-09-06T12:24:10.455Z,56.60
2018-09-06T12:25:10.505Z,55.40
2018-09-06T12:26:10.434Z,57.40
2018-09-06T12:27:10.419Z,56.70
2018-09-06T12:28:10.440Z,50.80
2018-09-06T12:29:10.399Z,54.80
2018-09-06T12:30:10.399Z,54.80
2018-09-06T12:31:10.384Z,58.50
2018-09-06T12:32:10.365Z,55.40
2018-09-06T12:33:10.417Z,55.40
2018-09-06T12:34:10.300Z,58.90
2018-09-06T12:35:10.338Z,58.20
2018-09-06T12:36:10.318Z,58.60
2018-09-06T12:37:10.311Z,60.00
2018-09-06T12:38:10.324Z,58.90
2018-09-06T12:39:10.288Z,58.90
2018-09-06T12:40:10.276Z,62.90
2018-09-06T12:41:10.277Z,60.80
2018-09-06T12:42:10.256Z,61.20
2018-09-06T12:43:10.269Z,62.30
2018-09-06T12:44:10.231Z,60.80
2018-09-06T12:45:10.221Z,57.70
2018-09-06T12:46:10.208Z,60.80
2018-09-06T12:47:10.198Z,57.90